Main page
METAR-TAF:

METAR-TAF

Airports :

Cognac – Châteaubernard Air Base

Cognac, France

latitude: 45-40N, longitude: 000-19W, elevation: 30 m

Current weather observation

The report was made 40 minutes ago, at 06:00 UTC
Wind 5 kt from the South/Southwest
Temperature 21°C
Humidity 94%
Pressure 1012 hPa
Visibility 10 km or more
Overcast at a height of 600 ft

METAR: LFBG 130600Z AUTO 20005KT 9999 OVC006 21/20 Q1012

Time: 08:40 (06:40 UTC)

Forecast

The report was made 4 hours and 40 minutes ago, at 02:00 UTC
Forecast valid from 13 at 03 UTC to 14 at 03 UTC
Wind 8 kt from the West/Southwest
Visibility 10 km or more
no clouds below 1500 m and no cumulonimbus
Probability 40% :
Temporary
from 13 at 03 UTC to 13 at 06 UTC
Broken clouds at a height of 800 ft
Probability 40% :
Temporary
from 13 at 21 UTC to 14 at 03 UTC
Visibility: 4000 m
Broken clouds at a height of 8000 ft, Cumulonimbus.
thunderstorm, light rain

TAF: LFBG 130200Z 1303/1403 25008KT CAVOK PROB40 TEMPO 1303/1306 BKN008 PROB40 TEMPO 1321/1403 4000 -TSRA BKN080CB

Weather observations and forecasts of more than 4000 airports (METAR and TAF reports).

The available stations are represented by yellow and red dots on the map.

Hover mouse over dot to see the name of the station.

Then click to see weather observations and forecasts.

To change the map : click on the green buttons with a black cross to zoom in, on the green button with a dash to zoom out, or on the green arrows for adjacent maps.


METAR-TAF: